createdAt,value
2022-08-09T00:01:43.189Z,2.30
2022-08-09T00:05:03.679Z,2.40
2022-08-09T00:08:32.627Z,2.20
2022-08-09T00:12:03.089Z,2.45
2022-08-09T00:14:57.078Z,2.28
2022-08-09T00:18:05.584Z,2.45
2022-08-09T00:21:13.396Z,2.50
2022-08-09T00:24:15.070Z,2.58
2022-08-09T00:27:16.678Z,2.50
2022-08-09T00:30:25.683Z,2.53
2022-08-09T00:33:32.593Z,2.38
2022-08-09T00:36:50.845Z,2.40
2022-08-09T00:40:12.713Z,2.83
2022-08-09T00:44:24.880Z,2.50
2022-08-09T00:46:55.983Z,2.50
2022-08-09T00:49:59.683Z,2.53
2022-08-09T00:53:10.521Z,2.75
2022-08-09T00:56:13.917Z,2.50
2022-08-09T00:59:20.050Z,2.65
2022-08-09T01:02:43.023Z,2.80
2022-08-09T01:05:55.456Z,3.08
2022-08-09T01:09:18.674Z,3.00
2022-08-09T01:12:52.983Z,3.20
2022-08-09T01:15:57.878Z,2.92
2022-08-09T01:19:17.106Z,2.75
2022-08-09T01:23:05.457Z,3.33
2022-08-09T01:27:04.486Z,2.78
2022-08-09T01:30:28.576Z,2.90
2022-08-09T01:33:38.333Z,3.08
2022-08-09T01:36:41.950Z,2.50
2022-08-09T01:39:46.429Z,2.78
2022-08-09T01:42:50.109Z,3.00
2022-08-09T01:45:54.277Z,2.55
2022-08-09T01:49:10.783Z,2.58
2022-08-09T01:52:18.266Z,2.67
2022-08-09T01:55:22.801Z,2.40
2022-08-09T01:58:27.260Z,2.50
2022-08-09T02:01:58.317Z,2.55
2022-08-09T02:04:53.789Z,2.70
2022-08-09T02:08:39.640Z,2.67
2022-08-09T02:11:42.843Z,2.65
2022-08-09T02:14:48.426Z,2.70
2022-08-09T02:18:09.259Z,2.63
2022-08-09T02:21:22.122Z,2.60
2022-08-09T02:24:29.598Z,2.40
2022-08-09T02:27:43.484Z,2.50
2022-08-09T02:31:01.689Z,2.92
2022-08-09T02:34:13.852Z,2.63
2022-08-09T02:37:31.835Z,2.40
2022-08-09T02:40:39.965Z,3.10
2022-08-09T02:43:54.693Z,2.60
2022-08-09T02:47:00.911Z,2.55
2022-08-09T02:50:11.044Z,2.92
2022-08-09T02:53:26.191Z,2.78
2022-08-09T02:56:31.680Z,2.65
2022-08-09T02:59:37.000Z,2.75
2022-08-09T03:02:58.090Z,2.80
2022-08-09T03:06:03.378Z,2.60
2022-08-09T03:09:07.811Z,2.80
2022-08-09T03:12:13.536Z,2.70
2022-08-09T03:15:16.316Z,2.55
2022-08-09T03:18:19.207Z,2.70
2022-08-09T03:21:36.539Z,2.65
2022-08-09T03:24:51.836Z,2.83
2022-08-09T03:27:55.574Z,2.95
2022-08-09T03:30:58.845Z,2.90
2022-08-09T03:34:02.959Z,2.67
2022-08-09T03:37:54.766Z,2.75
2022-08-09T03:40:31.002Z,2.63
2022-08-09T03:43:33.124Z,2.70
2022-08-09T03:46:35.351Z,2.83
2022-08-09T03:49:37.987Z,2.90
2022-08-09T03:52:42.486Z,2.72
2022-08-09T03:55:44.197Z,2.67
2022-08-09T03:58:46.469Z,2.55
2022-08-09T04:01:53.789Z,2.67
2022-08-09T04:05:06.424Z,2.58
2022-08-09T04:08:08.601Z,2.60
2022-08-09T04:11:11.358Z,2.70
2022-08-09T04:14:53.557Z,2.47
2022-08-09T04:17:34.658Z,2.67
2022-08-09T04:20:36.830Z,2.60
2022-08-09T04:23:38.448Z,2.90
2022-08-09T04:26:41.565Z,2.67
2022-08-09T04:29:49.909Z,2.40
2022-08-09T04:32:52.516Z,2.58
2022-08-09T04:35:55.848Z,2.65
2022-08-09T04:39:00.531Z,2.60
2022-08-09T04:42:03.609Z,2.93
2022-08-09T04:45:05.640Z,2.78
2022-08-09T04:48:10.385Z,2.85
2022-08-09T04:51:12.739Z,2.80
2022-08-09T04:54:20.367Z,2.75
2022-08-09T04:57:24.522Z,2.67
2022-08-09T05:00:31.907Z,2.83
2022-08-09T05:03:42.632Z,2.60
2022-08-09T05:06:45.568Z,2.60
2022-08-09T05:12:53.807Z,2.30
2022-08-09T05:15:56.976Z,2.45
2022-08-09T05:19:00.329Z,2.55
2022-08-09T05:22:02.408Z,3.00
2022-08-09T05:25:05.324Z,2.80
2022-08-09T05:28:06.978Z,2.80
2022-08-09T05:31:09.613Z,3.00
2022-08-09T05:34:16.662Z,3.25
2022-08-09T05:37:19.086Z,3.03
2022-08-09T05:40:21.783Z,2.90
2022-08-09T05:43:23.996Z,2.78
2022-08-09T05:50:19.552Z,2.72
2022-08-09T05:52:55.015Z,2.78
2022-08-09T05:55:56.713Z,2.90
2022-08-09T05:58:58.880Z,2.75
2022-08-09T06:02:00.758Z,2.85
2022-08-09T06:05:03.953Z,2.90
2022-08-09T06:08:08.923Z,2.72
2022-08-09T06:11:17.471Z,3.30
2022-08-09T06:14:19.436Z,2.90
2022-08-09T06:17:21.034Z,2.65
2022-08-09T06:20:25.131Z,2.78
2022-08-09T06:23:58.298Z,2.58
2022-08-09T06:26:50.987Z,2.80
2022-08-09T06:29:58.598Z,2.70
2022-08-09T06:33:30.422Z,2.55
2022-08-09T06:36:32.989Z,2.50
2022-08-09T06:39:48.775Z,2.80
2022-08-09T06:42:56.433Z,2.63
2022-08-09T06:46:08.062Z,2.42
2022-08-09T06:49:16.066Z,2.45
2022-08-09T06:52:25.122Z,2.42
2022-08-09T06:55:31.814Z,2.33
2022-08-09T07:00:52.658Z,3.10
2022-08-09T07:01:59.478Z,2.40
2022-08-09T07:05:07.253Z,2.30
2022-08-09T07:08:09.090Z,2.28
2022-08-09T07:11:12.565Z,2.30
2022-08-09T07:14:18.098Z,2.30
2022-08-09T07:17:28.449Z,2.30
2022-08-09T07:20:43.325Z,2.20
2022-08-09T07:23:56.565Z,2.30
2022-08-09T07:27:01.603Z,2.22
2022-08-09T07:30:06.797Z,2.10
2022-08-09T07:33:10.265Z,2.10
2022-08-09T07:36:17.832Z,2.28
2022-08-09T07:39:41.644Z,2.15
2022-08-09T07:42:59.211Z,2.20
2022-08-09T07:46:02.020Z,2.20
2022-08-09T07:49:05.484Z,2.20
2022-08-09T07:52:17.189Z,2.25
2022-08-09T07:55:19.541Z,1.92
2022-08-09T07:58:26.332Z,2.25
2022-08-09T08:01:33.888Z,1.98
2022-08-09T08:04:37.306Z,2.00
2022-08-09T08:09:00.595Z,2.10
2022-08-09T08:11:15.280Z,1.92
2022-08-09T08:14:24.173Z,1.80
2022-08-09T08:17:51.965Z,2.10
2022-08-09T08:20:51.726Z,1.90
2022-08-09T08:23:55.651Z,2.10
2022-08-09T08:26:58.002Z,1.90
2022-08-09T08:29:59.684Z,2.05
2022-08-09T08:33:06.122Z,2.28
2022-08-09T08:36:13.720Z,2.00
2022-08-09T08:39:33.043Z,2.15
2022-08-09T08:42:47.187Z,2.22
2022-08-09T08:46:03.695Z,2.00
2022-08-09T08:49:19.138Z,2.13
2022-08-09T08:55:52.577Z,2.00
2022-08-09T08:58:54.593Z,2.10
2022-08-09T09:01:59.877Z,2.00
2022-08-09T09:05:09.917Z,1.90
2022-08-09T09:08:30.031Z,2.10
2022-08-09T09:11:38.423Z,1.80
2022-08-09T09:14:42.069Z,2.10
2022-08-09T09:17:48.600Z,2.00
2022-08-09T09:20:53.599Z,1.83
2022-08-09T09:24:05.436Z,1.90
2022-08-09T09:28:06.518Z,2.22
2022-08-09T09:30:56.039Z,1.90
2022-08-09T09:34:18.047Z,2.00
2022-08-09T09:37:32.197Z,2.20
2022-08-09T09:40:46.300Z,2.03
2022-08-09T09:44:11.927Z,2.00
2022-08-09T09:47:15.169Z,2.10
2022-08-09T09:50:23.113Z,1.90
2022-08-09T09:53:44.046Z,1.90
2022-08-09T09:58:00.167Z,2.10
2022-08-09T10:00:30.325Z,1.90
2022-08-09T10:03:44.609Z,2.03
2022-08-09T10:06:52.178Z,2.10
2022-08-09T10:09:58.107Z,2.13
2022-08-09T10:13:04.824Z,2.10
2022-08-09T10:16:55.625Z,1.80
2022-08-09T10:19:36.749Z,2.05
2022-08-09T10:22:39.039Z,2.17
2022-08-09T10:26:07.111Z,2.00
2022-08-09T10:29:23.505Z,2.05
2022-08-09T10:32:40.376Z,1.90
2022-08-09T10:35:45.447Z,2.15
2022-08-09T10:38:57.063Z,1.95
2022-08-09T10:42:01.949Z,1.92
2022-08-09T10:45:11.894Z,2.08
2022-08-09T10:48:30.431Z,2.03
2022-08-09T10:51:45.609Z,2.00
2022-08-09T10:54:54.746Z,2.20
2022-08-09T10:58:00.097Z,2.10
2022-08-09T11:04:31.564Z,2.10
2022-08-09T11:07:57.270Z,3.00
2022-08-09T11:10:59.799Z,2.17
2022-08-09T11:14:34.218Z,2.10
2022-08-09T11:17:42.943Z,2.13
2022-08-09T11:20:50.084Z,2.10
2022-08-09T11:24:10.600Z,2.00
2022-08-09T11:28:03.003Z,2.25
2022-08-09T11:30:55.847Z,2.00
2022-08-09T11:34:03.019Z,2.20
2022-08-09T11:37:07.592Z,1.80
2022-08-09T11:40:13.179Z,2.00
2022-08-09T11:43:25.770Z,1.90
2022-08-09T11:46:51.924Z,2.20
2022-08-09T11:50:56.228Z,2.05
2022-08-09T11:53:59.569Z,2.42
2022-08-09T11:56:47.998Z,2.05
2022-08-09T11:59:52.269Z,2.15
2022-08-09T12:02:54.610Z,2.00
2022-08-09T12:05:58.971Z,2.17
2022-08-09T12:09:19.732Z,2.10
2022-08-09T12:12:29.186Z,2.10
2022-08-09T12:15:50.478Z,2.20
2022-08-09T12:18:54.767Z,2.00
2022-08-09T12:22:01.217Z,2.00
2022-08-09T12:25:16.818Z,1.98
2022-08-09T12:29:09.975Z,1.80
2022-08-09T12:32:01.604Z,1.92
2022-08-09T12:35:12.423Z,2.05
2022-08-09T12:38:37.797Z,2.00
2022-08-09T12:41:40.590Z,1.83
2022-08-09T12:44:42.860Z,1.80
2022-08-09T12:47:53.910Z,2.10
2022-08-09T12:50:56.719Z,2.00
2022-08-09T12:54:05.920Z,1.77
2022-08-09T12:57:08.414Z,1.80
2022-08-09T13:00:25.232Z,2.05
2022-08-09T13:03:52.674Z,1.80
2022-08-09T13:06:55.042Z,2.00
2022-08-09T13:10:06.065Z,1.98
2022-08-09T13:13:10.140Z,1.65
2022-08-09T13:16:15.890Z,2.08
2022-08-09T13:20:06.992Z,1.75
2022-08-09T13:24:05.895Z,1.90
2022-08-09T13:26:36.475Z,1.65
2022-08-09T13:30:02.577Z,1.90
2022-08-09T13:33:00.693Z,1.58
2022-08-09T13:36:39.814Z,1.90
2022-08-09T13:41:20.918Z,1.80
2022-08-09T13:42:46.710Z,1.77
2022-08-09T13:46:42.936Z,1.77
2022-08-09T13:49:18.029Z,1.65
2022-08-09T13:52:20.711Z,1.60
2022-08-09T13:55:22.393Z,1.70
2022-08-09T13:58:24.214Z,1.70
2022-08-09T14:02:01.296Z,1.70
2022-08-09T14:04:49.511Z,1.60
2022-08-09T14:08:06.082Z,1.60
2022-08-09T14:11:09.896Z,1.70
2022-08-09T14:14:26.150Z,1.55
2022-08-09T14:17:53.222Z,1.60
2022-08-09T14:20:50.339Z,1.88
2022-08-09T14:23:56.518Z,1.80
2022-08-09T14:27:02.585Z,1.65
2022-08-09T14:30:37.359Z,1.40
2022-08-09T14:33:26.461Z,1.40
2022-08-09T14:36:35.320Z,1.80
2022-08-09T14:39:46.842Z,1.58
2022-08-09T14:42:50.613Z,1.50
2022-08-09T14:46:56.646Z,1.52
2022-08-09T14:49:15.306Z,1.65
2022-08-09T14:52:18.007Z,1.63
2022-08-09T14:55:20.360Z,1.63
2022-08-09T14:58:23.288Z,1.70
2022-08-09T15:01:24.926Z,1.60
2022-08-09T15:04:27.572Z,1.60
2022-08-09T15:07:35.107Z,1.50
2022-08-09T15:10:37.902Z,1.60
2022-08-09T15:13:48.064Z,1.67
2022-08-09T15:16:58.277Z,1.50
2022-08-09T15:20:02.743Z,1.50
2022-08-09T15:24:00.797Z,1.50
2022-08-09T15:26:31.826Z,1.50
2022-08-09T15:30:56.258Z,1.50
2022-08-09T15:32:55.799Z,1.60
2022-08-09T15:36:02.007Z,1.40
2022-08-09T15:39:07.351Z,1.50
2022-08-09T15:42:09.311Z,1.48
2022-08-09T15:45:15.384Z,1.35
2022-08-09T15:48:28.903Z,1.35
2022-08-09T15:52:01.996Z,1.10
2022-08-09T15:54:54.394Z,1.20
2022-08-09T15:57:56.025Z,1.58
2022-08-09T16:00:57.792Z,1.50
2022-08-09T16:03:59.446Z,1.38
2022-08-09T16:07:02.609Z,1.20
2022-08-09T16:10:55.883Z,1.10
2022-08-09T16:14:06.104Z,1.10
2022-08-09T16:17:03.870Z,1.17
2022-08-09T16:20:09.236Z,1.10
2022-08-09T16:23:11.533Z,1.10
2022-08-09T16:26:20.112Z,1.20
2022-08-09T16:29:37.969Z,1.10
2022-08-09T16:33:09.668Z,1.00
2022-08-09T16:36:16.311Z,1.30
2022-08-09T16:39:20.567Z,1.10
2022-08-09T16:42:23.743Z,1.00
2022-08-09T16:45:27.258Z,1.08
2022-08-09T16:48:39.725Z,1.00
2022-08-09T16:51:54.028Z,1.10
2022-08-09T16:54:57.335Z,1.30
2022-08-09T16:58:10.401Z,1.10
2022-08-09T17:01:13.727Z,1.00
2022-08-09T17:04:25.540Z,1.10
2022-08-09T17:08:42.778Z,1.10
2022-08-09T17:10:51.856Z,1.00
2022-08-09T17:14:01.030Z,1.00
2022-08-09T17:17:26.079Z,0.90
2022-08-09T17:20:32.647Z,1.10
2022-08-09T17:24:26.867Z,0.90
2022-08-09T17:27:01.329Z,1.40
2022-08-09T17:30:12.867Z,0.90
2022-08-09T17:33:22.300Z,1.00
2022-08-09T17:36:24.805Z,1.10
2022-08-09T17:39:27.667Z,1.25
2022-08-09T17:42:49.283Z,1.10
2022-08-09T17:46:04.247Z,6.10
2022-08-09T17:49:08.118Z,1.92
2022-08-09T17:52:20.593Z,1.05
2022-08-09T17:55:24.381Z,1.10
2022-08-09T17:58:45.940Z,0.90
2022-08-09T18:02:07.464Z,1.00
2022-08-09T18:05:13.178Z,1.00
2022-08-09T18:08:15.141Z,1.08
2022-08-09T18:11:18.093Z,1.00
2022-08-09T18:14:25.721Z,1.00
2022-08-09T18:18:01.730Z,0.98
2022-08-09T18:20:54.501Z,1.00
2022-08-09T18:24:11.282Z,0.90
2022-08-09T18:27:18.773Z,1.02
2022-08-09T18:30:49.406Z,0.90
2022-08-09T18:33:53.480Z,0.90
2022-08-09T18:36:55.990Z,1.00
2022-08-09T18:39:57.880Z,1.00
2022-08-09T18:42:59.637Z,1.00
2022-08-09T18:46:49.688Z,0.90
2022-08-09T18:49:23.826Z,1.08
2022-08-09T18:52:34.454Z,1.10
2022-08-09T18:55:45.464Z,1.00
2022-08-09T18:58:58.445Z,1.15
2022-08-09T19:02:03.186Z,1.20
2022-08-09T19:05:20.405Z,1.13
2022-08-09T19:08:28.735Z,1.00
2022-08-09T19:11:37.606Z,0.98
2022-08-09T19:14:39.787Z,1.00
2022-08-09T19:17:54.463Z,1.00
2022-08-09T19:20:58.425Z,1.10
2022-08-09T19:24:36.495Z,1.20
2022-08-09T19:27:21.970Z,0.98
2022-08-09T19:30:28.684Z,1.00
2022-08-09T19:33:30.927Z,1.05
2022-08-09T19:36:32.868Z,1.10
2022-08-09T19:40:02.970Z,1.05
2022-08-09T19:42:56.851Z,1.08
2022-08-09T19:45:58.573Z,0.90
2022-08-09T19:50:07.498Z,1.10
2022-08-09T19:52:22.481Z,1.10
2022-08-09T19:55:53.056Z,1.20
2022-08-09T19:59:18.252Z,1.00
2022-08-09T20:02:18.203Z,1.08
2022-08-09T20:05:46.357Z,1.10
2022-08-09T20:08:56.864Z,1.20
2022-08-09T20:12:02.523Z,1.23
2022-08-09T20:16:31.812Z,1.10
2022-08-09T20:18:28.158Z,1.20
2022-08-09T20:21:40.975Z,1.38
2022-08-09T20:24:54.143Z,1.17
2022-08-09T20:27:56.418Z,1.40
2022-08-09T20:30:58.023Z,1.10
2022-08-09T20:34:02.389Z,1.40
2022-08-09T20:37:04.144Z,1.30
2022-08-09T20:40:14.974Z,1.20
2022-08-09T20:43:25.308Z,1.20
2022-08-09T20:46:42.386Z,1.20
2022-08-09T20:49:46.478Z,1.20
2022-08-09T20:52:48.539Z,1.13
2022-08-09T20:56:01.073Z,1.10
2022-08-09T20:59:04.398Z,1.10
2022-08-09T21:02:06.169Z,1.20
2022-08-09T21:05:54.619Z,1.30
2022-08-09T21:08:36.711Z,1.40
2022-08-09T21:15:02.694Z,1.40
2022-08-09T21:18:21.067Z,1.40
2022-08-09T21:21:46.353Z,1.20
2022-08-09T21:25:06.937Z,1.42
2022-08-09T21:28:11.857Z,1.30
2022-08-09T21:31:18.181Z,1.30
2022-08-09T21:34:29.555Z,1.20
2022-08-09T21:37:35.488Z,1.20
2022-08-09T21:40:50.704Z,1.10
2022-08-09T21:43:56.608Z,1.10
2022-08-09T21:46:59.602Z,1.30
2022-08-09T21:50:04.679Z,1.30
2022-08-09T21:53:15.641Z,1.50
2022-08-09T21:56:43.624Z,1.17
2022-08-09T21:59:47.729Z,1.20
2022-08-09T22:02:58.154Z,1.30
2022-08-09T22:06:01.129Z,1.30
2022-08-09T22:09:03.980Z,1.30
2022-08-09T22:12:18.416Z,1.20
2022-08-09T22:15:23.489Z,1.20
2022-08-09T22:18:53.388Z,1.30
2022-08-09T22:21:56.763Z,1.45
2022-08-09T22:26:06.706Z,1.33
2022-08-09T22:28:29.718Z,1.33
2022-08-09T22:31:35.782Z,1.30
2022-08-09T22:34:41.116Z,1.20
2022-08-09T22:37:42.961Z,1.10
2022-08-09T22:40:49.015Z,1.27
2022-08-09T22:44:02.249Z,1.48
2022-08-09T22:48:15.363Z,1.38
2022-08-09T22:50:27.995Z,1.20
2022-08-09T22:53:44.490Z,1.20
2022-08-09T22:56:54.747Z,1.30
2022-08-09T22:59:59.418Z,1.33
2022-08-09T23:03:01.225Z,1.30
2022-08-09T23:06:03.614Z,1.42
2022-08-09T23:09:06.811Z,1.40
2022-08-09T23:12:08.949Z,1.30
2022-08-09T23:15:10.738Z,1.30
2022-08-09T23:18:12.362Z,1.40
2022-08-09T23:21:15.858Z,1.40
2022-08-09T23:24:27.851Z,1.40
2022-08-09T23:27:29.418Z,1.35
2022-08-09T23:30:31.070Z,1.30
2022-08-09T23:33:32.822Z,1.60
2022-08-09T23:36:35.354Z,1.30
2022-08-09T23:39:37.049Z,1.58
2022-08-09T23:42:38.955Z,1.33
2022-08-09T23:45:42.355Z,1.40
2022-08-09T23:48:44.280Z,1.42
2022-08-09T23:51:46.175Z,1.40
2022-08-09T23:54:47.748Z,1.70
2022-08-09T23:58:06.693Z,1.50
